Time;durP1;ratioP1;P1;durP2;ratioP2;P2;SDS_P1;SDS_P2;PMS_P1;PMS_P2;Temp;Humidity;BMP_temperature;BMP_pressure;BME280_temperature;BME280_humidity;BME280_pressure;Samples;Min_cycle;Max_cycle;Signal;HPM_P1;HPM_P2
2024/03/09 00:01:58;;;;;;;3.20;1.95;;;;;;;;;;5069352;28;20115;-59
2024/03/09 00:04:23;;;;;;;3.85;2.10;;;;;;;;;;5069637;28;20112;-58
2024/03/09 00:06:48;;;;;;;3.55;1.95;;;;;;;;;;5069323;28;20633;-58
2024/03/09 00:09:14;;;;;;;3.47;2.10;;;;;;;;;;5069541;28;20527;-56
2024/03/09 00:11:39;;;;;;;3.50;2.03;;;;;;;;;;5069849;28;20037;-58
2024/03/09 00:14:06;;;;;;;3.15;1.90;;;;;;;;;;5069784;28;20111;-58
2024/03/09 00:16:31;;;;;;;3.38;1.98;;;;;;;;;;5070037;28;20035;-60
2024/03/09 00:18:58;;;;;;;3.40;1.98;;;;;;;;;;5069047;28;20052;-58
2024/03/09 00:21:23;;;;;;;3.63;2.03;;;;;;;;;;5069169;28;20037;-55
2024/03/09 00:23:50;;;;;;;4.32;2.20;;;;;;;;;;5068868;28;20032;-51
2024/03/09 00:26:16;;;;;;;3.65;2.30;;;;;;;;;;5069611;28;20119;-55
2024/03/09 00:28:42;;;;;;;4.35;2.45;;;;;;;;;;5070058;28;20045;-53
2024/03/09 00:31:07;;;;;;;3.40;2.08;;;;;;;;;;5069087;28;20032;-55
2024/03/09 00:33:33;;;;;;;2.97;1.88;;;;;;;;;;5071572;28;20082;-50
2024/03/09 00:35:59;;;;;;;3.55;1.75;;;;;;;;;;5073801;28;20040;-50
2024/03/09 00:38:24;;;;;;;3.85;2.33;;;;;;;;;;5073244;28;20111;-52
2024/03/09 00:40:49;;;;;;;3.92;2.10;;;;;;;;;;5073821;28;20120;-51
2024/03/09 00:43:15;;;;;;;3.35;1.98;;;;;;;;;;5073665;28;20047;-52
2024/03/09 00:45:40;;;;;;;4.15;2.05;;;;;;;;;;5073396;28;20032;-51
2024/03/09 00:48:06;;;;;;;2.90;1.73;;;;;;;;;;5073431;28;20135;-55
2024/03/09 00:50:31;;;;;;;3.55;2.00;;;;;;;;;;5073518;28;20454;-54
2024/03/09 00:52:57;;;;;;;3.38;2.10;;;;;;;;;;5072837;28;20043;-54
2024/03/09 00:55:22;;;;;;;3.40;2.03;;;;;;;;;;5072708;28;20076;-54
2024/03/09 00:57:51;;;;;;;3.90;2.05;;;;;;;;;;5073314;28;20044;-50
2024/03/09 01:00:18;;;;;;;3.03;1.85;;;;;;;;;;5073303;28;20439;-50
2024/03/09 01:02:49;;;;;;;4.68;2.13;;;;;;;;;;5072600;28;20112;-51
2024/03/09 01:05:19;;;;;;;4.63;2.05;;;;;;;;;;5072813;28;20037;-50
2024/03/09 01:07:44;;;;;;;3.97;2.17;;;;;;;;;;5072591;28;20061;-55
2024/03/09 01:10:10;;;;;;;4.63;2.20;;;;;;;;;;5072311;28;20123;-53
2024/03/09 01:12:36;;;;;;;3.17;1.92;;;;;;;;;;5073138;28;20400;-51
2024/03/09 01:15:06;;;;;;;4.53;2.22;;;;;;;;;;5072884;28;20507;-50
2024/03/09 01:17:35;;;;;;;4.57;1.90;;;;;;;;;;5072626;28;20043;-55
2024/03/09 01:20:01;;;;;;;3.25;1.80;;;;;;;;;;5072888;28;20059;-52
2024/03/09 01:22:27;;;;;;;3.08;1.77;;;;;;;;;;5072994;28;20036;-50
2024/03/09 01:24:52;;;;;;;3.75;2.00;;;;;;;;;;5072297;28;20025;-54
2024/03/09 01:27:18;;;;;;;4.13;2.42;;;;;;;;;;5072617;28;20037;-52
2024/03/09 01:29:47;;;;;;;3.50;1.83;;;;;;;;;;5072637;28;20033;-55
2024/03/09 01:32:13;;;;;;;3.65;2.05;;;;;;;;;;5072021;28;20634;-53
2024/03/09 01:34:38;;;;;;;4.43;2.17;;;;;;;;;;5072074;28;20085;-54
2024/03/09 01:37:07;;;;;;;3.20;1.73;;;;;;;;;;5072830;28;20044;-53
2024/03/09 01:39:33;;;;;;;2.75;1.70;;;;;;;;;;5072078;28;20086;-53
2024/03/09 01:41:59;;;;;;;3.28;1.95;;;;;;;;;;5072019;28;20510;-54
2024/03/09 01:44:24;;;;;;;4.53;2.17;;;;;;;;;;5072268;28;20064;-54
2024/03/09 01:46:50;;;;;;;4.22;1.83;;;;;;;;;;5071958;28;20488;-50
2024/03/09 01:49:17;;;;;;;3.33;1.92;;;;;;;;;;5072026;28;20115;-53
2024/03/09 01:51:46;;;;;;;3.53;1.90;;;;;;;;;;5072394;28;20064;-52
2024/03/09 01:54:19;;;;;;;3.30;2.00;;;;;;;;;;5070877;28;20108;-55
2024/03/09 01:56:48;;;;;;;;;;;;;;;;;;5071122;28;20098;-49
2024/03/09 01:59:15;;;;;;;3.10;1.70;;;;;;;;;;5072077;28;20294;-50
2024/03/09 02:01:40;;;;;;;3.92;2.08;;;;;;;;;;5071840;28;20106;-50
2024/03/09 02:04:06;;;;;;;3.58;2.20;;;;;;;;;;5071740;28;20032;-51
2024/03/09 02:06:32;;;;;;;2.90;1.88;;;;;;;;;;5071188;28;20463;-60
2024/03/09 02:08:58;;;;;;;3.92;2.13;;;;;;;;;;5068783;28;20395;-59
2024/03/09 02:11:25;;;;;;;3.63;1.92;;;;;;;;;;5071833;28;20029;-60
2024/03/09 02:13:52;;;;;;;3.20;1.88;;;;;;;;;;5054027;28;20048;-58
2024/03/09 02:16:19;;;;;;;3.67;2.08;;;;;;;;;;5071137;28;20506;-58
2024/03/09 02:18:45;;;;;;;3.33;1.90;;;;;;;;;;5071438;28;20085;-58
2024/03/09 02:21:12;;;;;;;4.18;2.25;;;;;;;;;;5071488;28;20082;-50
2024/03/09 02:23:37;;;;;;;3.10;2.00;;;;;;;;;;5070754;28;20068;-56
2024/03/09 02:26:03;;;;;;;3.58;2.10;;;;;;;;;;5071638;28;20059;-55
2024/03/09 02:28:28;;;;;;;3.70;2.17;;;;;;;;;;5071312;28;20040;-55
2024/03/09 02:30:54;;;;;;;4.93;2.47;;;;;;;;;;5071494;28;20049;-54
2024/03/09 02:33:20;;;;;;;3.25;1.88;;;;;;;;;;5071181;28;20037;-54
2024/03/09 02:35:46;;;;;;;3.33;1.88;;;;;;;;;;5070743;28;20040;-53
2024/03/09 02:38:11;;;;;;;3.65;2.20;;;;;;;;;;5071377;28;20032;-55
2024/03/09 02:40:36;;;;;;;3.00;1.80;;;;;;;;;;5071513;28;20047;-54
2024/03/09 02:43:04;;;;;;;5.13;2.25;;;;;;;;;;5069712;28;20036;-50
2024/03/09 02:45:30;;;;;;;3.90;1.85;;;;;;;;;;5071361;28;20043;-55
2024/03/09 02:47:55;;;;;;;3.95;2.10;;;;;;;;;;5071247;28;20028;-55
2024/03/09 02:50:23;;;;;;;3.38;1.85;;;;;;;;;;5070734;28;20411;-53
2024/03/09 02:52:48;;;;;;;3.40;1.77;;;;;;;;;;5071142;28;20593;-51
2024/03/09 02:55:15;;;;;;;4.35;2.00;;;;;;;;;;5069870;28;20068;-52
2024/03/09 02:57:40;;;;;;;3.75;1.80;;;;;;;;;;5070783;28;20036;-52
2024/03/09 03:00:11;;;;;;;3.53;1.83;;;;;;;;;;5070600;28;20120;-55
2024/03/09 03:05:22;;;;;;;;;;;;;;;;;;5070762;28;20530;-54
2024/03/09 03:07:47;;;;;;;3.03;1.70;;;;;;;;;;5070379;28;20007;-57
2024/03/09 03:10:12;;;;;;;4.13;2.00;;;;;;;;;;5070676;28;20119;-55
2024/03/09 03:12:38;;;;;;;3.35;1.83;;;;;;;;;;5070857;28;20032;-53
2024/03/09 03:15:07;;;;;;;2.97;1.85;;;;;;;;;;5070483;28;20044;-56
2024/03/09 03:17:33;;;;;;;3.80;1.85;;;;;;;;;;5070494;28;20044;-53
2024/03/09 03:19:59;;;;;;;4.78;2.00;;;;;;;;;;5070545;28;20395;-58
2024/03/09 03:22:24;;;;;;;3.55;1.98;;;;;;;;;;5070111;28;20063;-60
2024/03/09 03:24:49;;;;;;;3.83;2.10;;;;;;;;;;5070242;28;20043;-58
2024/03/09 03:27:15;;;;;;;3.38;1.98;;;;;;;;;;5068854;28;20107;-57
2024/03/09 03:29:40;;;;;;;2.58;1.52;;;;;;;;;;5070211;28;20123;-59
2024/03/09 03:32:06;;;;;;;3.50;2.05;;;;;;;;;;5069904;28;20044;-61
2024/03/09 03:34:33;;;;;;;3.92;2.10;;;;;;;;;;5070314;28;20028;-54
2024/03/09 03:36:58;;;;;;;5.05;1.92;;;;;;;;;;5070015;28;20040;-50
2024/03/09 03:39:27;;;;;;;3.47;2.00;;;;;;;;;;5069875;28;20488;-55
2024/03/09 03:41:52;;;;;;;3.30;2.08;;;;;;;;;;5070400;28;20090;-49
2024/03/09 03:44:19;;;;;;;3.20;1.90;;;;;;;;;;5070767;28;20040;-53
2024/03/09 03:46:44;;;;;;;4.25;2.03;;;;;;;;;;5069762;28;20044;-51
2024/03/09 03:49:10;;;;;;;3.70;1.90;;;;;;;;;;5070490;28;20024;-58
2024/03/09 03:51:36;;;;;;;3.22;1.83;;;;;;;;;;5070146;28;20040;-60
2024/03/09 03:54:01;;;;;;;3.83;2.10;;;;;;;;;;5069564;28;20387;-60
2024/03/09 03:56:27;;;;;;;5.25;1.85;;;;;;;;;;5070206;28;20029;-59
2024/03/09 03:58:53;;;;;;;4.07;1.73;;;;;;;;;;5070143;28;20373;-58
2024/03/09 04:01:21;;;;;;;3.85;2.15;;;;;;;;;;5069161;28;20046;-56
2024/03/09 04:03:47;;;;;;;3.53;2.17;;;;;;;;;;5069307;28;20036;-56
2024/03/09 04:06:13;;;;;;;4.90;1.98;;;;;;;;;;5070302;28;20113;-57
2024/03/09 04:08:39;;;;;;;3.85;1.95;;;;;;;;;;5075644;28;20052;-53
2024/03/09 04:11:05;;;;;;;2.70;1.60;;;;;;;;;;5076956;28;20410;-52
2024/03/09 04:13:31;;;;;;;3.13;1.73;;;;;;;;;;5076890;28;20036;-60
2024/03/09 04:15:56;;;;;;;2.90;1.73;;;;;;;;;;5076364;28;20686;-60
2024/03/09 04:18:22;;;;;;;3.97;2.20;;;;;;;;;;5075718;28;20024;-60
2024/03/09 04:20:47;;;;;;;3.15;2.17;;;;;;;;;;5076288;28;20123;-61
2024/03/09 04:23:18;;;;;;;4.40;1.70;;;;;;;;;;5075402;28;20111;-59
2024/03/09 04:25:46;;;;;;;4.68;2.05;;;;;;;;;;5076133;28;20032;-52
2024/03/09 04:28:15;;;;;;;3.55;1.95;;;;;;;;;;5076718;28;20376;-50
2024/03/09 04:30:42;;;;;;;4.22;2.17;;;;;;;;;;5076626;28;20079;-50
2024/03/09 04:33:10;;;;;;;3.60;2.05;;;;;;;;;;5075433;28;20028;-51
2024/03/09 04:35:37;;;;;;;3.70;1.92;;;;;;;;;;5076598;28;20039;-54
2024/03/09 04:38:03;;;;;;;3.88;2.40;;;;;;;;;;5075667;28;20089;-54
2024/03/09 04:40:29;;;;;;;3.05;1.70;;;;;;;;;;5075646;28;20044;-52
2024/03/09 04:42:55;;;;;;;3.97;1.90;;;;;;;;;;5076944;28;20075;-51
2024/03/09 04:45:25;;;;;;;2.97;1.75;;;;;;;;;;5076428;28;20200;-51
2024/03/09 04:47:53;;;;;;;2.90;1.60;;;;;;;;;;5075617;28;20039;-52
2024/03/09 04:50:19;;;;;;;3.80;1.85;;;;;;;;;;5076678;28;20052;-53
2024/03/09 04:52:48;;;;;;;3.47;1.80;;;;;;;;;;5075759;28;20033;-53
2024/03/09 04:55:22;;;;;;;3.78;2.00;;;;;;;;;;5075372;28;20032;-50
2024/03/09 04:57:48;;;;;;;3.63;1.85;;;;;;;;;;5076086;28;20476;-50
2024/03/09 05:00:14;;;;;;;2.92;1.63;;;;;;;;;;5076382;28;20035;-49
2024/03/09 05:02:44;;;;;;;3.90;1.85;;;;;;;;;;5075904;28;20032;-50
2024/03/09 05:05:10;;;;;;;3.03;1.73;;;;;;;;;;5075761;28;20074;-50
2024/03/09 05:07:36;;;;;;;3.25;1.77;;;;;;;;;;5075968;28;20523;-54
2024/03/09 05:10:01;;;;;;;3.63;1.73;;;;;;;;;;5075104;28;20028;-54
2024/03/09 05:12:27;;;;;;;4.10;1.83;;;;;;;;;;5075978;28;20039;-55
2024/03/09 05:14:52;;;;;;;3.47;1.73;;;;;;;;;;5075882;28;20040;-51
2024/03/09 05:17:17;;;;;;;3.28;1.70;;;;;;;;;;5058040;28;20056;-53
2024/03/09 05:19:43;;;;;;;3.60;1.85;;;;;;;;;;5071729;28;20066;-55
2024/03/09 05:22:08;;;;;;;4.15;1.90;;;;;;;;;;5072682;28;20036;-54
2024/03/09 05:24:33;;;;;;;3.45;1.63;;;;;;;;;;5072904;28;20028;-55
2024/03/09 05:26:59;;;;;;;3.70;1.80;;;;;;;;;;5072344;28;20033;-56
2024/03/09 05:29:26;;;;;;;3.17;1.90;;;;;;;;;;5072808;28;20094;-51
2024/03/09 05:31:51;;;;;;;3.50;1.95;;;;;;;;;;5072632;28;20032;-52
2024/03/09 05:34:18;;;;;;;3.75;1.90;;;;;;;;;;5072066;28;20040;-51
2024/03/09 05:36:44;;;;;;;4.22;2.00;;;;;;;;;;5072128;28;20033;-55
2024/03/09 05:39:12;;;;;;;3.35;1.70;;;;;;;;;;5072888;28;20542;-52
2024/03/09 05:41:38;;;;;;;3.17;1.73;;;;;;;;;;5072167;28;20131;-53
2024/03/09 05:44:03;;;;;;;4.13;1.85;;;;;;;;;;5072287;28;20120;-53
2024/03/09 05:46:29;;;;;;;4.15;1.70;;;;;;;;;;5072335;28;20067;-54
2024/03/09 05:48:55;;;;;;;3.78;1.80;;;;;;;;;;5072361;28;20089;-53
2024/03/09 05:51:20;;;;;;;3.65;2.20;;;;;;;;;;5071760;28;20560;-50
2024/03/09 05:53:49;;;;;;;3.30;1.67;;;;;;;;;;5072287;28;20027;-52
2024/03/09 05:56:15;;;;;;;3.30;1.70;;;;;;;;;;5072418;28;20044;-52
2024/03/09 05:58:40;;;;;;;2.92;1.70;;;;;;;;;;5070641;28;20047;-52
2024/03/09 06:01:06;;;;;;;3.13;1.77;;;;;;;;;;5071871;28;20500;-55
2024/03/09 06:03:31;;;;;;;3.60;1.70;;;;;;;;;;5072254;28;20396;-56
2024/03/09 06:05:57;;;;;;;3.65;1.90;;;;;;;;;;5071070;28;20040;-52
2024/03/09 06:08:22;;;;;;;4.00;1.92;;;;;;;;;;5072100;28;20383;-53
2024/03/09 06:10:49;;;;;;;3.30;1.67;;;;;;;;;;5072146;28;20161;-52
2024/03/09 06:13:18;;;;;;;3.90;1.75;;;;;;;;;;5071570;28;20039;-51
2024/03/09 06:15:53;;;;;;;3.15;1.92;;;;;;;;;;5070971;28;20036;-53
2024/03/09 06:18:19;;;;;;;2.85;1.58;;;;;;;;;;5071343;28;20435;-54
2024/03/09 06:20:46;;;;;;;2.90;1.77;;;;;;;;;;5070836;28;20094;-50
2024/03/09 06:23:12;;;;;;;3.17;1.88;;;;;;;;;;5067365;28;20492;-56
2024/03/09 06:25:40;;;;;;;4.03;2.00;;;;;;;;;;5071768;28;20032;-53
2024/03/09 06:28:07;;;;;;;3.45;1.95;;;;;;;;;;5071243;28;20048;-51
2024/03/09 06:30:33;;;;;;;3.60;1.90;;;;;;;;;;5070097;28;20039;-54
2024/03/09 06:33:00;;;;;;;3.58;2.10;;;;;;;;;;5071208;28;20028;-59
2024/03/09 06:35:28;;;;;;;4.13;2.10;;;;;;;;;;5070992;28;20111;-58
2024/03/09 06:38:00;;;;;;;4.35;2.00;;;;;;;;;;5071234;28;20063;-58
2024/03/09 06:40:27;;;;;;;3.72;1.98;;;;;;;;;;5071394;28;20500;-60
2024/03/09 06:43:00;;;;;;;3.58;1.98;;;;;;;;;;5071310;28;20045;-57
2024/03/09 06:45:26;;;;;;;4.25;2.00;;;;;;;;;;5070200;28;20124;-51
2024/03/09 06:47:52;;;;;;;3.70;1.70;;;;;;;;;;5071290;28;20041;-55
2024/03/09 06:50:18;;;;;;;4.07;1.90;;;;;;;;;;5071171;28;20032;-50
2024/03/09 06:52:43;;;;;;;4.85;1.70;;;;;;;;;;5070691;28;20112;-54
2024/03/09 06:55:08;;;;;;;3.17;1.80;;;;;;;;;;5071185;28;20041;-51
2024/03/09 06:57:35;;;;;;;3.72;2.03;;;;;;;;;;5070963;28;20041;-54
2024/03/09 07:00:11;;;;;;;3.33;1.80;;;;;;;;;;5061307;28;20029;-50
2024/03/09 07:02:37;;;;;;;3.92;2.10;;;;;;;;;;5070399;28;20610;-53
2024/03/09 07:05:04;;;;;;;3.00;1.70;;;;;;;;;;5070246;28;20116;-54
2024/03/09 07:07:30;;;;;;;3.47;1.88;;;;;;;;;;5070404;28;20060;-49
2024/03/09 07:09:56;;;;;;;3.22;1.92;;;;;;;;;;5070706;28;20028;-52
2024/03/09 07:12:22;;;;;;;3.75;1.80;;;;;;;;;;5071105;28;20044;-52
2024/03/09 07:14:48;;;;;;;3.45;1.85;;;;;;;;;;5070910;28;20119;-54
2024/03/09 07:17:17;;;;;;;3.97;2.08;;;;;;;;;;5069944;28;20107;-52
2024/03/09 07:19:45;;;;;;;3.15;1.80;;;;;;;;;;5069792;28;20407;-59
2024/03/09 07:22:13;;;;;;;3.28;1.75;;;;;;;;;;5070338;28;20064;-59
2024/03/09 07:24:41;;;;;;;4.05;2.05;;;;;;;;;;5070069;28;20025;-60
2024/03/09 07:27:08;;;;;;;3.15;1.90;;;;;;;;;;5073658;28;20050;-59
2024/03/09 07:29:34;;;;;;;4.28;2.15;;;;;;;;;;5070767;28;20047;-59
2024/03/09 07:32:00;;;;;;;3.63;1.98;;;;;;;;;;5070161;28;20051;-53
2024/03/09 07:34:25;;;;;;;2.92;1.65;;;;;;;;;;5070608;28;20063;-56
2024/03/09 07:36:50;;;;;;;3.13;1.70;;;;;;;;;;5070472;28;20064;-49
2024/03/09 07:39:16;;;;;;;3.88;1.77;;;;;;;;;;5070084;28;20032;-52
2024/03/09 07:41:42;;;;;;;3.95;2.10;;;;;;;;;;5069334;28;20037;-54
2024/03/09 07:44:08;;;;;;;3.88;1.70;;;;;;;;;;5069468;28;20036;-54
2024/03/09 07:46:35;;;;;;;3.22;1.80;;;;;;;;;;5068981;28;20052;-55
2024/03/09 07:49:00;;;;;;;3.38;1.70;;;;;;;;;;5069619;28;20029;-51
2024/03/09 07:51:29;;;;;;;4.00;1.83;;;;;;;;;;5069433;28;20074;-54
2024/03/09 07:53:54;;;;;;;3.67;1.90;;;;;;;;;;5069098;28;20062;-60
2024/03/09 07:56:19;;;;;;;3.00;1.80;;;;;;;;;;5073603;28;20033;-59
2024/03/09 07:58:45;;;;;;;4.63;1.85;;;;;;;;;;5070338;28;20090;-59
2024/03/09 08:01:10;;;;;;;3.15;1.77;;;;;;;;;;5070570;28;20036;-59
2024/03/09 08:03:36;;;;;;;3.08;1.77;;;;;;;;;;5068834;28;20492;-58
2024/03/09 08:06:02;;;;;;;3.65;1.80;;;;;;;;;;5069110;28;20071;-60
2024/03/09 08:08:27;;;;;;;3.33;1.70;;;;;;;;;;5070017;28;20607;-60
2024/03/09 08:10:53;;;;;;;3.53;1.70;;;;;;;;;;5069328;28;20357;-59
2024/03/09 08:13:19;;;;;;;2.70;1.40;;;;;;;;;;5070197;28;20446;-58
2024/03/09 08:15:48;;;;;;;2.88;1.70;;;;;;;;;;5069348;28;20583;-58
2024/03/09 08:18:13;;;;;;;2.95;1.70;;;;;;;;;;5069246;28;20483;-55
2024/03/09 08:20:38;;;;;;;3.50;1.80;;;;;;;;;;5069310;28;20086;-58
2024/03/09 08:23:04;;;;;;;3.10;1.55;;;;;;;;;;5069814;28;20162;-54
2024/03/09 08:25:29;;;;;;;2.80;1.80;;;;;;;;;;5066754;28;20052;-56
2024/03/09 08:27:55;;;;;;;3.10;1.70;;;;;;;;;;5069528;28;20041;-57
2024/03/09 08:30:21;;;;;;;2.97;1.88;;;;;;;;;;5070255;28;20036;-57
2024/03/09 08:32:48;;;;;;;3.13;1.70;;;;;;;;;;5076119;28;20047;-52
2024/03/09 08:35:18;;;;;;;2.58;1.50;;;;;;;;;;5076013;28;20484;-54
2024/03/09 08:37:45;;;;;;;2.70;1.50;;;;;;;;;;5064832;28;20037;-55
2024/03/09 08:40:17;;;;;;;2.78;1.60;;;;;;;;;;5069905;28;20040;-56
2024/03/09 08:42:44;;;;;;;2.75;1.55;;;;;;;;;;5069431;28;20063;-55
2024/03/09 08:45:09;;;;;;;3.53;1.60;;;;;;;;;;5069156;28;20472;-56
2024/03/09 08:47:38;;;;;;;3.70;1.80;;;;;;;;;;5069736;28;20128;-55
2024/03/09 08:50:04;;;;;;;2.88;1.75;;;;;;;;;;5069228;28;20025;-56
2024/03/09 08:52:32;;;;;;;3.00;1.70;;;;;;;;;;5069346;28;20051;-55
2024/03/09 08:54:58;;;;;;;3.20;1.60;;;;;;;;;;5072598;28;20037;-56
2024/03/09 08:57:23;;;;;;;4.03;1.80;;;;;;;;;;5072530;28;20459;-55
2024/03/09 08:59:52;;;;;;;2.60;1.40;;;;;;;;;;5072772;28;20048;-54
2024/03/09 09:02:22;;;;;;;3.13;1.50;;;;;;;;;;5055252;28;20107;-55
2024/03/09 09:04:47;;;;;;;2.58;1.55;;;;;;;;;;5072668;28;20047;-57
2024/03/09 09:07:12;;;;;;;2.95;1.55;;;;;;;;;;5072676;28;20036;-58
2024/03/09 09:09:38;;;;;;;2.83;1.42;;;;;;;;;;5072947;28;20476;-59
2024/03/09 09:12:05;;;;;;;4.03;2.00;;;;;;;;;;5073059;28;20444;-59
2024/03/09 09:14:30;;;;;;;8.60;1.60;;;;;;;;;;5064651;28;20123;-61
2024/03/09 09:16:56;;;;;;;6.05;1.40;;;;;;;;;;5072945;28;20173;-60
2024/03/09 09:19:22;;;;;;;3.30;1.63;;;;;;;;;;5073072;28;20079;-52
2024/03/09 09:21:48;;;;;;;4.53;1.58;;;;;;;;;;5070743;28;20488;-54
2024/03/09 09:24:13;;;;;;;5.13;1.80;;;;;;;;;;5072117;28;20582;-55
2024/03/09 09:26:39;;;;;;;4.35;1.80;;;;;;;;;;5071900;28;20132;-54
2024/03/09 09:29:04;;;;;;;6.65;1.73;;;;;;;;;;5070990;28;20388;-53
2024/03/09 09:31:32;;;;;;;4.68;1.67;;;;;;;;;;5071678;28;20133;-55
2024/03/09 09:33:58;;;;;;;2.80;1.40;;;;;;;;;;5072788;28;20166;-52
2024/03/09 09:36:24;;;;;;;3.10;1.30;;;;;;;;;;5071664;28;20115;-54
2024/03/09 09:38:52;;;;;;;5.07;1.55;;;;;;;;;;5071697;28;20033;-60
2024/03/09 09:41:18;;;;;;;3.30;1.50;;;;;;;;;;5072783;28;20365;-60
2024/03/09 09:43:43;;;;;;;2.28;1.20;;;;;;;;;;5071530;28;20039;-60
2024/03/09 09:46:08;;;;;;;7.45;1.67;;;;;;;;;;5054231;28;20036;-61
2024/03/09 09:48:37;;;;;;;5.20;1.50;;;;;;;;;;5054757;28;20072;-62
2024/03/09 09:51:05;;;;;;;4.25;1.25;;;;;;;;;;5072529;28;20624;-55
2024/03/09 09:53:31;;;;;;;5.15;1.60;;;;;;;;;;5072257;28;20041;-54
2024/03/09 09:55:57;;;;;;;3.00;1.30;;;;;;;;;;5072352;28;20039;-59
2024/03/09 09:58:22;;;;;;;3.10;1.38;;;;;;;;;;5077051;28;20029;-60
2024/03/09 10:00:49;;;;;;;4.28;1.17;;;;;;;;;;5073092;28;20097;-59
2024/03/09 10:03:15;;;;;;;3.40;1.40;;;;;;;;;;5072038;28;20035;-59
2024/03/09 10:05:40;;;;;;;2.65;1.20;;;;;;;;;;5072081;28;20037;-59
2024/03/09 10:08:11;;;;;;;3.45;1.30;;;;;;;;;;5071695;28;20040;-60
2024/03/09 10:10:47;;;;;;;3.90;1.30;;;;;;;;;;5065146;28;20052;-58
2024/03/09 10:13:17;;;;;;;5.72;1.48;;;;;;;;;;5072156;28;20040;-57
2024/03/09 10:15:44;;;;;;;2.88;1.15;;;;;;;;;;5070899;28;20483;-60
2024/03/09 10:18:11;;;;;;;3.50;1.33;;;;;;;;;;5061764;28;20055;-58
2024/03/09 10:20:38;;;;;;;4.72;1.40;;;;;;;;;;5066006;28;20140;-58
2024/03/09 10:23:12;;;;;;;2.20;1.10;;;;;;;;;;5070541;28;20103;-59
2024/03/09 10:25:38;;;;;;;3.67;1.30;;;;;;;;;;5071115;28;20036;-59
2024/03/09 10:28:05;;;;;;;6.13;1.10;;;;;;;;;;5071378;28;20120;-59
2024/03/09 10:30:31;;;;;;;4.90;1.50;;;;;;;;;;5076827;28;20438;-58
2024/03/09 10:32:58;;;;;;;2.45;1.25;;;;;;;;;;5071544;28;20046;-56
2024/03/09 10:35:23;;;;;;;3.50;1.33;;;;;;;;;;5071232;28;20032;-55
2024/03/09 10:37:50;;;;;;;1.85;1.00;;;;;;;;;;5071494;28;20514;-54
2024/03/09 10:40:20;;;;;;;4.22;1.10;;;;;;;;;;5071247;28;20044;-61
2024/03/09 10:42:47;;;;;;;4.32;1.33;;;;;;;;;;5071418;28;20081;-61
2024/03/09 10:45:14;;;;;;;5.35;1.20;;;;;;;;;;5071295;28;20392;-61
2024/03/09 10:47:53;;;;;;;3.85;1.00;;;;;;;;;;5070958;28;20028;-59
2024/03/09 10:50:24;;;;;;;3.67;1.10;;;;;;;;;;5071100;28;20040;-60
2024/03/09 10:53:01;;;;;;;3.30;1.10;;;;;;;;;;5071605;28;20035;-51
2024/03/09 10:55:59;;;;;;;2.45;1.00;;;;;;;;;;5058173;28;20507;-55
2024/03/09 10:58:26;;;;;;;1.70;1.00;;;;;;;;;;5070151;28;20036;-58
2024/03/09 11:00:52;;;;;;;2.03;0.95;;;;;;;;;;5071151;28;20044;-58
2024/03/09 11:03:23;;;;;;;1.90;1.00;;;;;;;;;;5070448;28;20032;-60
2024/03/09 11:05:49;;;;;;;1.88;0.90;;;;;;;;;;5070604;28;20114;-57
2024/03/09 11:08:15;;;;;;;3.30;0.90;;;;;;;;;;5070997;28;20036;-60
2024/03/09 11:10:43;;;;;;;3.97;0.95;;;;;;;;;;5069898;28;20583;-60
2024/03/09 11:13:10;;;;;;;7.22;1.27;;;;;;;;;;5070610;28;20630;-60
2024/03/09 11:15:38;;;;;;;1.67;0.93;;;;;;;;;;5052587;28;20137;-59
2024/03/09 11:18:07;;;;;;;2.63;1.05;;;;;;;;;;5069714;28;20056;-59
2024/03/09 11:20:36;;;;;;;6.55;1.10;;;;;;;;;;5070722;28;20048;-55
2024/03/09 11:23:02;;;;;;;2.00;0.80;;;;;;;;;;5070696;28;20047;-55
2024/03/09 11:25:43;;;;;;;3.55;1.08;;;;;;;;;;5070440;28;20032;-56
2024/03/09 11:28:08;;;;;;;1.58;0.88;;;;;;;;;;5070655;28;20032;-55
2024/03/09 11:30:34;;;;;;;2.33;0.82;;;;;;;;;;5070749;28;20413;-50
2024/03/09 11:33:01;;;;;;;4.03;0.95;;;;;;;;;;5070145;28;20121;-56
2024/03/09 11:35:28;;;;;;;2.10;0.95;;;;;;;;;;5066808;28;20040;-56
2024/03/09 11:37:56;;;;;;;2.33;1.05;;;;;;;;;;5070359;28;20032;-51
2024/03/09 11:40:24;;;;;;;1.70;0.70;;;;;;;;;;5060263;28;20108;-51
2024/03/09 11:43:09;;;;;;;1.52;0.70;;;;;;;;;;5064598;28;20050;-51
2024/03/09 11:45:35;;;;;;;3.58;0.80;;;;;;;;;;5070366;28;20052;-52
2024/03/09 11:48:02;;;;;;;1.52;0.70;;;;;;;;;;5070423;28;20149;-51
2024/03/09 11:50:28;;;;;;;2.95;0.77;;;;;;;;;;5070335;28;20380;-55
2024/03/09 11:52:55;;;;;;;2.28;0.90;;;;;;;;;;5070181;28;20035;-51
2024/03/09 11:55:23;;;;;;;2.85;0.70;;;;;;;;;;5052217;28;20502;-51
2024/03/09 11:57:52;;;;;;;1.77;0.80;;;;;;;;;;5069667;28;20391;-56
2024/03/09 12:00:17;;;;;;;2.40;1.13;;;;;;;;;;5070342;28;20388;-60
2024/03/09 12:02:43;;;;;;;1.67;0.63;;;;;;;;;;5067483;28;20050;-58
2024/03/09 12:05:17;;;;;;;1.40;0.70;;;;;;;;;;5069151;28;20433;-61
2024/03/09 12:07:45;;;;;;;2.83;0.90;;;;;;;;;;5069300;28;20044;-61
2024/03/09 12:10:14;;;;;;;2.58;0.75;;;;;;;;;;5068802;28;20047;-60
2024/03/09 12:12:43;;;;;;;1.27;0.73;;;;;;;;;;5068434;28;20035;-51
2024/03/09 12:15:10;;;;;;;3.25;0.80;;;;;;;;;;5069024;28;20067;-52
2024/03/09 12:17:38;;;;;;;1.55;0.70;;;;;;;;;;5069623;28;20041;-53
2024/03/09 12:20:05;;;;;;;2.85;0.75;;;;;;;;;;5049573;28;20052;-55
2024/03/09 12:22:30;;;;;;;1.77;0.70;;;;;;;;;;5069773;28;20078;-55
2024/03/09 12:24:57;;;;;;;1.17;0.50;;;;;;;;;;5069617;28;20052;-54
2024/03/09 12:27:24;;;;;;;1.77;0.93;;;;;;;;;;5069872;28;20078;-54
2024/03/09 12:29:49;;;;;;;2.88;0.60;;;;;;;;;;5073904;28;20094;-52
2024/03/09 12:32:15;;;;;;;1.50;0.60;;;;;;;;;;5073255;28;20391;-54
2024/03/09 12:34:41;;;;;;;1.88;0.70;;;;;;;;;;5054987;28;20580;-51
2024/03/09 12:37:07;;;;;;;1.08;0.63;;;;;;;;;;5055239;28;20044;-56
2024/03/09 12:39:32;;;;;;;1.17;0.70;;;;;;;;;;5073322;28;20037;-54
2024/03/09 12:41:58;;;;;;;4.03;0.90;;;;;;;;;;5073641;28;20111;-54
2024/03/09 12:44:24;;;;;;;1.45;0.60;;;;;;;;;;5055411;28;20068;-54
2024/03/09 12:46:50;;;;;;;2.92;0.90;;;;;;;;;;5073707;28;20076;-54
2024/03/09 12:49:15;;;;;;;1.92;0.70;;;;;;;;;;5073694;28;20430;-55
2024/03/09 12:51:48;;;;;;;1.42;0.60;;;;;;;;;;5054820;28;20135;-53
2024/03/09 12:54:14;;;;;;;;;;;;;;;;;;5061894;28;20040;-54
2024/03/09 12:56:41;;;;;;;1.15;0.60;;;;;;;;;;5073563;28;19919;-54
2024/03/09 12:59:09;;;;;;;3.78;0.80;;;;;;;;;;5072909;28;20044;-51
2024/03/09 13:01:36;;;;;;;2.53;0.73;;;;;;;;;;5073162;28;20533;-55
2024/03/09 13:04:07;;;;;;;4.50;0.70;;;;;;;;;;5065348;28;20039;-53
2024/03/09 13:06:37;;;;;;;1.45;0.90;;;;;;;;;;5071001;28;20040;-54
2024/03/09 13:09:03;;;;;;;1.73;0.70;;;;;;;;;;5073014;28;20634;-53
2024/03/09 13:11:28;;;;;;;3.00;0.80;;;;;;;;;;5073106;28;20476;-54
2024/03/09 13:13:57;;;;;;;1.17;0.60;;;;;;;;;;5072645;28;20043;-50
2024/03/09 13:16:23;;;;;;;1.90;0.60;;;;;;;;;;5071954;28;20454;-55
2024/03/09 13:18:50;;;;;;;1.80;0.70;;;;;;;;;;5072540;28;20041;-53
2024/03/09 13:21:15;;;;;;;1.65;0.70;;;;;;;;;;5073230;28;20036;-51
2024/03/09 13:23:41;;;;;;;0.88;0.60;;;;;;;;;;5071619;28;20032;-55
2024/03/09 13:26:12;;;;;;;0.95;0.57;;;;;;;;;;5072830;28;20414;-53
2024/03/09 13:28:41;;;;;;;2.38;0.70;;;;;;;;;;5072685;28;20122;-54
2024/03/09 13:31:11;;;;;;;1.25;0.60;;;;;;;;;;5071799;28;20024;-51
2024/03/09 13:33:42;;;;;;;2.00;0.60;;;;;;;;;;5072848;28;20495;-51
2024/03/09 13:36:17;;;;;;;4.07;0.70;;;;;;;;;;5072450;28;20032;-54
2024/03/09 13:38:43;;;;;;;1.70;0.70;;;;;;;;;;5071554;28;20484;-55
2024/03/09 13:41:09;;;;;;;1.13;0.60;;;;;;;;;;5071893;28;20052;-53
2024/03/09 13:43:45;;;;;;;4.72;1.05;;;;;;;;;;5071857;28;20076;-55
2024/03/09 13:46:10;;;;;;;1.00;0.60;;;;;;;;;;5072144;28;20036;-52
2024/03/09 13:48:40;;;;;;;1.60;0.75;;;;;;;;;;5072634;28;20405;-54
2024/03/09 13:51:12;;;;;;;3.85;0.90;;;;;;;;;;5072556;28;20078;-53
2024/03/09 13:53:42;;;;;;;2.30;0.50;;;;;;;;;;5072135;28;20068;-55
2024/03/09 13:56:14;;;;;;;1.73;0.73;;;;;;;;;;5072508;28;20036;-51
2024/03/09 13:58:48;;;;;;;1.48;0.60;;;;;;;;;;5071865;28;20044;-54
2024/03/09 14:01:16;;;;;;;1.58;0.80;;;;;;;;;;5071129;28;20032;-59
2024/03/09 14:03:46;;;;;;;1.33;0.60;;;;;;;;;;5071162;28;20467;-60
2024/03/09 14:06:14;;;;;;;1.92;0.65;;;;;;;;;;5070730;28;20064;-59
2024/03/09 14:08:40;;;;;;;1.30;0.60;;;;;;;;;;5071464;28;20032;-60
2024/03/09 14:11:10;;;;;;;2.08;0.60;;;;;;;;;;5071945;28;20037;-58
2024/03/09 14:13:36;;;;;;;9.80;0.85;;;;;;;;;;5071664;28;20040;-59
2024/03/09 14:16:08;;;;;;;3.20;0.80;;;;;;;;;;5071863;28;20045;-56
2024/03/09 14:18:38;;;;;;;2.53;0.70;;;;;;;;;;5071847;28;20028;-59
2024/03/09 14:21:07;;;;;;;3.25;0.73;;;;;;;;;;5071551;28;20064;-57
2024/03/09 14:23:36;;;;;;;1.65;0.70;;;;;;;;;;5071841;28;20063;-56
2024/03/09 14:26:06;;;;;;;1.73;0.60;;;;;;;;;;5071616;28;20056;-51
2024/03/09 14:28:32;;;;;;;1.35;0.57;;;;;;;;;;5071722;28;20492;-56
2024/03/09 14:30:57;;;;;;;2.72;0.65;;;;;;;;;;5071696;28;20419;-52
2024/03/09 14:33:23;;;;;;;4.50;0.85;;;;;;;;;;5071192;28;20036;-53
2024/03/09 14:35:48;;;;;;;2.00;1.00;;;;;;;;;;5071738;28;20047;-52
2024/03/09 14:38:14;;;;;;;1.58;0.70;;;;;;;;;;5071542;28;20036;-52
2024/03/09 14:40:40;;;;;;;2.85;0.70;;;;;;;;;;5071291;28;20056;-52
2024/03/09 14:43:08;;;;;;;2.10;0.60;;;;;;;;;;5071491;28;20125;-54
2024/03/09 14:45:35;;;;;;;1.52;0.55;;;;;;;;;;5071643;28;20032;-51